Time;durP1;ratioP1;P1;durP2;ratioP2;P2;SDS_P1;SDS_P2;PMS_P1;PMS_P2;Temp;Humidity;BMP_temperature;BMP_pressure;BME280_temperature;BME280_humidity;BME280_pressure;Samples;Min_cycle;Max_cycle;Signal;HPM_P1;HPM_P2
2022/12/24 00:01:40;;;;;;;17.58;12.82;;;;;;;27.25;45.01;101145.03;5046236;28;70209;-35
2022/12/24 00:04:11;;;;;;;32.10;13.50;;;;;;;27.26;45.56;101135.91;5032901;28;66168;-32
2022/12/24 00:06:43;;;;;;;34.85;12.90;;;;;;;27.29;44.95;101140.91;5056758;28;70361;-33
2022/12/24 00:09:14;;;;;;;49.92;14.05;;;;;;;27.26;45.41;101141.31;5049330;28;66448;-35
2022/12/24 00:11:46;;;;;;;28.02;15.55;;;;;;;27.27;45.99;101148.34;5053690;28;70551;-35
2022/12/24 00:14:17;;;;;;;30.60;17.23;;;;;;;27.23;46.50;101136.28;5057052;28;66053;-34
2022/12/24 00:16:48;;;;;;;31.75;16.38;;;;;;;27.33;47.04;101153.81;5058722;28;70023;-34
2022/12/24 00:19:20;;;;;;;27.53;17.40;;;;;;;27.34;47.39;101160.03;5054256;28;65289;-34
2022/12/24 00:21:51;;;;;;;33.58;18.30;;;;;;;27.35;47.48;101156.31;5053391;28;69411;-34
2022/12/24 00:24:22;;;;;;;40.92;17.05;;;;;;;27.38;47.98;101172.09;5054114;28;65727;-34
2022/12/24 00:26:54;;;;;;;49.13;20.05;;;;;;;27.39;48.31;101171.91;5055515;28;70589;-33
2022/12/24 00:29:25;;;;;;;35.67;18.73;;;;;;;27.34;48.56;101160.88;5067528;27;65361;-32
2022/12/24 00:31:56;;;;;;;42.03;19.60;;;;;;;27.41;49.15;101177.09;5051784;28;70258;-34
2022/12/24 00:34:28;;;;;;;44.70;19.10;;;;;;;27.40;49.28;101178.97;5057247;28;65622;-35
2022/12/24 00:36:59;;;;;;;43.30;19.20;;;;;;;27.43;49.87;101180.44;5051961;28;70092;-34
2022/12/24 00:39:30;;;;;;;39.03;17.70;;;;;;;27.00;49.83;101110.31;5058545;28;65952;-37
2022/12/24 00:42:02;;;;;;;36.78;17.70;;;;;;;27.46;50.23;101188.16;5054871;28;70439;-34
2022/12/24 00:44:33;;;;;;;35.27;16.70;;;;;;;27.46;50.28;101187.31;5057819;28;66112;-37
2022/12/24 00:47:04;;;;;;;39.13;17.83;;;;;;;27.46;50.13;101190.84;5057711;28;69882;-36
2022/12/24 00:49:40;;;;;;;36.25;16.63;;;;;;;27.47;50.47;101191.66;5055158;28;65961;-35
2022/12/24 00:52:12;;;;;;;36.13;18.00;;;;;;;27.49;50.45;101190.47;5059906;28;69245;-35
2022/12/24 00:54:43;;;;;;;31.20;16.63;;;;;;;27.48;50.61;101188.81;5057165;28;66156;-34
2022/12/24 00:57:14;;;;;;;32.70;17.10;;;;;;;27.50;50.79;101196.72;5052909;28;69477;-33
2022/12/24 00:59:46;;;;;;;35.40;17.23;;;;;;;27.47;51.08;101203.31;5057185;28;65522;-35
2022/12/24 01:02:17;;;;;;;45.13;17.95;;;;;;;27.50;50.90;101207.50;5059532;28;70324;-35
2022/12/24 01:07:42;;;;;;;30.77;17.20;;;;;;;27.26;50.98;101163.69;5054259;28;69542;-37
2022/12/24 01:10:18;;;;;;;37.50;17.80;;;;;;;27.54;50.89;101214.97;5055739;28;66490;-34
2022/12/24 01:12:49;;;;;;;36.55;17.23;;;;;;;27.52;50.99;101214.31;5051147;28;70204;-35
2022/12/24 01:15:20;;;;;;;23.70;16.43;;;;;;;27.51;51.14;101219.94;5052797;28;65325;-35
2022/12/24 01:17:52;;;;;;;29.92;16.17;;;;;;;27.49;51.48;101224.66;5052345;28;69406;-41
2022/12/24 01:20:25;;;;;;;28.35;16.42;;;;;;;27.45;51.36;101226.91;5038756;28;66406;-35
2022/12/24 01:22:57;;;;;;;35.67;17.40;;;;;;;27.55;52.59;101238.22;5053021;28;70284;-34
2022/12/24 01:25:28;;;;;;;27.67;18.13;;;;;;;27.66;52.29;101238.75;5053739;28;65127;-36
2022/12/24 01:28:00;;;;;;;34.60;18.05;;;;;;;27.56;52.80;101229.09;5054463;28;69287;-33
2022/12/24 01:30:31;;;;;;;26.67;18.80;;;;;;;27.56;52.62;101234.50;5052503;28;65217;-34
2022/12/24 01:33:03;;;;;;;32.35;18.55;;;;;;;27.64;52.91;101244.34;5050403;28;70647;-33
2022/12/24 01:35:34;;;;;;;32.53;19.03;;;;;;;27.64;52.98;101247.03;5054204;28;66033;-36
2022/12/24 01:38:06;;;;;;;34.38;19.55;;;;;;;27.67;53.10;101252.03;5055696;28;70227;-34
2022/12/24 01:43:31;;;;;;;42.00;19.73;;;;;;;27.63;53.07;101239.94;5055851;28;69518;-34
2022/12/24 01:46:11;;;;;;;35.83;20.98;;;;;;;27.25;53.75;101180.03;5048614;28;66576;-34
2022/12/24 01:48:53;;;;;;;38.05;22.05;;;;;;;27.70;54.12;101250.81;5052065;28;72668;-34
2022/12/24 01:51:44;;;;;;;40.33;21.13;;;;;;;27.64;54.88;101257.81;5051469;28;65393;-34
2022/12/24 01:54:30;;;;;;;33.10;19.92;;;;;;;27.60;54.63;101243.84;5052289;28;70470;-35
2022/12/24 01:57:10;;;;;;;41.20;21.95;;;;;;;27.32;54.54;101189.03;5049368;28;66757;-35
2022/12/24 01:59:45;;;;;;;37.05;20.40;;;;;;;27.28;54.24;101179.66;5051271;28;69753;-33
2022/12/24 02:02:18;;;;;;;36.95;21.50;;;;;;;27.33;54.55;101175.38;5050144;28;66410;-37
2022/12/24 02:05:22;;;;;;;43.22;22.05;;;;;;;27.72;54.59;101246.06;5053236;28;70143;-36
2022/12/24 02:07:54;;;;;;;33.78;22.23;;;;;;;27.81;53.95;101258.44;5050952;28;66394;-34
2022/12/24 02:10:26;;;;;;;54.53;28.02;;;;;;;27.78;51.73;101248.03;5052325;28;69976;-36
2022/12/24 02:12:59;;;;;;;49.50;29.10;;;;;;;27.75;52.34;101242.97;5053566;28;66294;-35
2022/12/24 02:15:40;;;;;;;57.05;29.05;;;;;;;27.66;52.00;101228.78;5049261;28;70165;-34
2022/12/24 02:18:24;;;;;;;85.72;31.10;;;;;;;27.72;52.03;101248.75;5051519;28;66454;-33
2022/12/24 02:21:32;;;;;;;115.25;40.78;;;;;;;27.59;50.66;101244.91;5051438;28;70601;-36
2022/12/24 02:24:15;;;;;;;95.78;35.90;;;;;;;27.62;51.71;101247.22;5048533;28;66200;-35
2022/12/24 02:26:56;;;;;;;88.72;33.63;;;;;;;27.69;52.66;101243.75;5052204;28;70271;-34
2022/12/24 02:29:55;;;;;;;80.22;32.35;;;;;;;27.21;52.74;101154.50;5049966;28;65493;-34
2022/12/24 02:33:26;;;;;;;68.18;28.70;;;;;;;27.34;53.07;101181.59;5049087;28;68903;-34
2022/12/24 02:36:06;;;;;;;63.95;30.25;;;;;;;27.44;52.70;101174.03;4991734;28;66581;-33
2022/12/24 02:38:59;;;;;;;60.35;26.50;;;;;;;27.88;52.82;101248.56;5045050;28;70087;-33
2022/12/24 02:44:28;;;;;;;64.75;27.63;;;;;;;27.54;52.95;101177.25;5054158;28;69024;-35
2022/12/24 02:47:00;;;;;;;46.08;24.50;;;;;;;27.80;52.95;101208.25;5052881;28;65808;-33
2022/12/24 02:49:32;;;;;;;61.35;27.00;;;;;;;28.04;53.11;101247.47;5052897;28;69432;-35
2022/12/24 02:52:03;;;;;;;52.70;24.20;;;;;;;27.94;52.97;101231.59;5053405;28;66211;-34
2022/12/24 02:54:35;;;;;;;58.35;25.90;;;;;;;28.08;52.74;101243.34;5050604;28;70418;-34
2022/12/24 02:57:27;;;;;;;49.70;23.27;;;;;;;28.02;52.61;101226.09;5055732;28;66314;-35
2022/12/24 03:00:05;;;;;;;56.45;23.90;;;;;;;28.17;52.75;101246.78;5050998;28;70449;-35
2022/12/24 03:02:56;;;;;;;52.15;24.40;;;;;;;28.18;52.96;101240.34;5058175;28;66530;-34
2022/12/24 03:05:44;;;;;;;46.35;23.08;;;;;;;28.13;52.94;101245.50;5047288;28;69759;-35
2022/12/24 03:08:50;;;;;;;39.90;22.92;;;;;;;28.12;53.20;101257.31;5055293;28;65203;-38
2022/12/24 03:11:22;;;;;;;45.80;23.02;;;;;;;28.22;52.78;101244.31;4974262;28;70827;-34
2022/12/24 03:13:58;;;;;;;54.67;22.38;;;;;;;27.85;53.44;101179.69;5043678;28;66239;-36
2022/12/24 03:16:29;;;;;;;35.33;22.05;;;;;;;28.24;52.95;101236.88;5052311;28;70566;-36
2022/12/24 03:19:01;;;;;;;;;;;;;;;28.11;53.41;101242.13;5049310;28;66224;-34
2022/12/24 03:21:37;;;;;;;39.53;20.88;;;;;;;28.34;53.14;101253.56;5058381;28;70363;-37
2022/12/24 03:24:10;;;;;;;43.92;20.45;;;;;;;28.40;53.07;101247.41;5044376;28;65918;-34
2022/12/24 03:26:44;;;;;;;33.38;18.92;;;;;;;27.92;53.40;101177.06;5053280;28;69640;-38
2022/12/24 03:29:17;;;;;;;50.63;18.33;;;;;;;28.42;53.02;101250.78;5051466;28;66424;-36
2022/12/24 03:31:51;;;;;;;32.92;16.48;;;;;;;28.42;52.46;101242.69;5045183;28;69610;-33
2022/12/24 03:34:22;;;;;;;40.28;19.08;;;;;;;28.47;53.63;101220.47;5052230;28;65602;-33
2022/12/24 03:36:54;;;;;;;37.58;18.85;;;;;;;28.51;53.72;101227.19;5055050;28;69831;-33
2022/12/24 03:39:25;;;;;;;36.60;17.27;;;;;;;28.51;53.63;101214.50;5049253;28;65940;-33
2022/12/24 03:41:56;;;;;;;39.92;18.70;;;;;;;28.50;53.73;101212.84;5056073;28;68412;-33
2022/12/24 03:44:28;;;;;;;32.67;16.40;;;;;;;28.50;53.04;101214.69;5051092;28;66381;-33
2022/12/24 03:46:59;;;;;;;30.98;14.68;;;;;;;28.46;52.98;101206.16;5045405;28;69734;-34
2022/12/24 03:49:30;;;;;;;23.53;13.43;;;;;;;28.51;53.02;101206.41;5056065;28;66238;-35
2022/12/24 03:52:02;;;;;;;21.30;13.67;;;;;;;28.48;52.43;101201.41;5053612;28;68988;-33
2022/12/24 03:54:33;;;;;;;24.15;14.25;;;;;;;28.53;52.66;101208.94;5061311;28;66026;-36
2022/12/24 03:57:05;;;;;;;23.50;14.20;;;;;;;28.58;52.07;101203.75;5057517;28;69926;-35
2022/12/24 03:59:36;;;;;;;22.98;13.20;;;;;;;28.60;52.13;101200.88;5052441;28;65975;-37
2022/12/24 04:02:08;;;;;;;25.30;14.45;;;;;;;28.66;51.90;101208.16;5052071;28;69198;-34
2022/12/24 04:04:39;;;;;;;26.05;14.10;;;;;;;28.58;52.18;101184.03;5052836;28;65926;-33
2022/12/24 04:07:11;;;;;;;21.35;13.70;;;;;;;28.68;52.04;101201.53;5051575;28;70094;-34
2022/12/24 04:09:42;;;;;;;29.07;14.37;;;;;;;28.71;51.99;101195.75;5052448;28;65587;-37
2022/12/24 04:12:13;;;;;;;19.65;14.30;;;;;;;28.74;51.54;101195.34;5051155;28;69328;-33
2022/12/24 04:14:44;;;;;;;18.10;12.80;;;;;;;28.72;51.87;101180.38;5054220;28;66351;-36
2022/12/24 04:17:16;;;;;;;25.48;14.00;;;;;;;28.80;51.25;101177.53;5054054;28;69318;-36
2022/12/24 04:19:47;;;;;;;16.38;12.95;;;;;;;28.76;51.81;101170.88;5053413;28;65313;-33
2022/12/24 04:22:19;;;;;;;27.58;13.65;;;;;;;28.82;51.54;101166.53;5053317;28;70498;-33
2022/12/24 04:24:50;;;;;;;28.02;13.52;;;;;;;28.85;51.40;101174.22;5053742;28;65573;-34
2022/12/24 04:27:22;;;;;;;18.33;13.60;;;;;;;28.85;51.29;101166.97;5053425;28;69999;-34
2022/12/24 04:29:59;;;;;;;21.92;12.32;;;;;;;28.68;51.11;101119.72;5056828;28;66287;-36
2022/12/24 04:32:31;;;;;;;24.42;13.57;;;;;;;28.88;51.15;101144.13;5056097;28;70256;-36
2022/12/24 04:35:02;;;;;;;23.33;13.90;;;;;;;28.92;50.80;101143.53;5045691;28;66068;-35
2022/12/24 04:37:34;;;;;;;19.10;12.60;;;;;;;28.95;50.61;101137.72;5055197;28;69430;-37
2022/12/24 04:40:06;;;;;;;17.90;13.13;;;;;;;28.96;50.50;101128.59;5058552;28;66300;-37
2022/12/24 04:42:37;;;;;;;15.27;11.85;;;;;;;28.98;50.42;101122.16;5058486;28;69845;-34
2022/12/24 04:45:09;;;;;;;15.57;13.13;;;;;;;28.95;50.37;101116.13;5050542;28;65596;-35
2022/12/24 04:47:40;;;;;;;18.35;12.13;;;;;;;28.97;50.28;101113.22;5051468;28;70345;-36
2022/12/24 04:50:12;;;;;;;15.95;11.75;;;;;;;28.99;50.24;101104.91;5050153;28;66016;-34
2022/12/24 04:52:43;;;;;;;12.77;11.43;;;;;;;29.07;50.19;101113.69;5061455;28;70133;-33
2022/12/24 04:55:14;;;;;;;15.77;12.40;;;;;;;29.09;50.04;101102.72;5061134;28;66190;-34
2022/12/24 04:57:46;;;;;;;18.33;11.98;;;;;;;29.11;50.25;101096.06;5050168;28;70324;-36
2022/12/24 05:00:21;;;;;;;15.43;11.82;;;;;;;28.92;50.15;101057.13;5047257;28;66005;-38
2022/12/24 05:02:53;;;;;;;15.27;12.20;;;;;;;29.17;50.22;101097.13;5058397;28;69704;-37
2022/12/24 05:05:24;;;;;;;14.43;12.48;;;;;;;29.18;49.62;101090.69;5060410;28;65253;-34
2022/12/24 05:08:05;;;;;;;16.58;11.75;;;;;;;29.22;49.96;101083.81;5069595;28;70154;-37
2022/12/24 05:10:36;;;;;;;13.32;11.88;;;;;;;29.20;50.03;101075.09;5060377;28;65840;-38
2022/12/24 05:13:08;;;;;;;17.17;11.68;;;;;;;29.25;49.90;101069.88;5061549;28;70115;-37
2022/12/24 05:15:39;;;;;;;14.30;11.70;;;;;;;29.29;49.79;101070.34;5047671;28;66440;-35
2022/12/24 05:18:10;;;;;;;17.73;11.30;;;;;;;29.30;49.20;101063.88;5052228;28;70027;-36
2022/12/24 05:20:42;;;;;;;18.77;11.18;;;;;;;29.32;49.30;101062.66;5056116;28;66375;-35
2022/12/24 05:26:27;;;;;;;11.48;10.43;;;;;;;29.35;48.87;101048.72;5053902;28;66276;-39
2022/12/24 05:29:00;;;;;;;12.45;10.45;;;;;;;29.39;49.45;101052.69;5054423;28;70723;-35
2022/12/24 05:31:32;;;;;;;12.50;10.98;;;;;;;29.39;49.06;101046.44;5045962;28;66280;-33
2022/12/24 05:34:04;;;;;;;12.20;10.77;;;;;;;29.43;48.96;101041.47;5051313;28;70066;-37
2022/12/24 05:36:35;;;;;;;11.33;10.10;;;;;;;29.43;49.28;101036.88;5051673;28;66357;-33
2022/12/24 05:39:08;;;;;;;12.37;10.77;;;;;;;29.46;49.31;101030.25;5050910;28;69178;-33
2022/12/24 05:41:46;;;;;;;11.50;10.48;;;;;;;29.41;48.59;101020.03;5049403;28;65728;-36
2022/12/24 05:44:17;;;;;;;10.75;9.73;;;;;;;29.48;48.56;101011.94;5047995;28;70198;-36
2022/12/24 05:46:48;;;;;;;15.63;12.43;;;;;;;29.37;48.80;100992.59;5048515;28;66597;-35
2022/12/24 05:49:20;;;;;;;18.13;12.97;;;;;;;29.33;48.60;100983.22;5048935;28;68792;-35
2022/12/24 05:51:51;;;;;;;17.80;13.93;;;;;;;29.39;49.37;100998.66;5049859;28;66102;-37
2022/12/24 05:54:23;;;;;;;16.73;12.43;;;;;;;29.32;49.14;100987.00;5049544;28;70093;-33
2022/12/24 05:56:54;;;;;;;;;;;;;;;29.04;49.58;100986.34;5049653;28;67832;-35
2022/12/24 05:59:25;;;;;;;20.73;17.33;;;;;;;29.26;49.81;100984.28;5048718;28;69787;-33
2022/12/24 06:01:56;;;;;;;23.70;16.80;;;;;;;29.25;49.78;100986.13;5047722;28;67077;-36
2022/12/24 06:04:28;;;;;;;20.63;16.20;;;;;;;29.24;49.64;100973.69;5047211;28;70213;-37
2022/12/24 06:06:59;;;;;;;17.08;14.95;;;;;;;29.23;49.76;100972.03;5048545;28;65279;-37
2022/12/24 06:09:31;;;;;;;17.25;15.48;;;;;;;29.26;49.57;100966.22;5050020;28;70218;-39
2022/12/24 06:12:02;;;;;;;21.35;15.73;;;;;;;29.19;49.57;100959.97;5051182;28;65432;-34
2022/12/24 06:14:33;;;;;;;20.97;15.70;;;;;;;29.25;49.93;100953.72;5052289;28;70300;-34
2022/12/24 06:17:05;;;;;;;21.40;14.53;;;;;;;29.17;49.59;100932.34;5060553;28;66249;-36
2022/12/24 06:19:36;;;;;;;14.13;12.77;;;;;;;29.28;49.51;100931.72;5051798;27;69157;-34
2022/12/24 06:22:07;;;;;;;19.03;13.47;;;;;;;29.27;49.34;100935.44;5054927;28;66184;-33
2022/12/24 06:24:39;;;;;;;14.75;13.38;;;;;;;29.27;49.92;100919.22;5047993;28;68931;-34
2022/12/24 06:27:10;;;;;;;13.57;12.30;;;;;;;29.26;49.51;100920.28;5053838;28;65482;-32
2022/12/24 06:29:41;;;;;;;20.50;13.57;;;;;;;29.30;49.25;100918.81;5054368;28;70122;-35
2022/12/24 06:32:13;;;;;;;16.95;12.57;;;;;;;29.31;49.42;100920.50;5052419;28;66232;-36
2022/12/24 06:34:44;;;;;;;13.17;11.97;;;;;;;29.34;49.67;100903.84;5057440;28;70103;-36
2022/12/24 06:37:17;;;;;;;13.53;11.63;;;;;;;29.34;49.33;100898.44;5051971;28;65027;-37
2022/12/24 06:39:48;;;;;;;13.15;11.85;;;;;;;29.36;49.71;100901.78;5058267;28;70209;-36
2022/12/24 06:42:19;;;;;;;13.10;11.60;;;;;;;29.39;49.55;100892.41;5050158;28;66015;-34
2022/12/24 06:44:51;;;;;;;12.73;11.53;;;;;;;29.39;49.68;100885.16;5054554;28;69105;-36
2022/12/24 06:47:22;;;;;;;12.40;11.10;;;;;;;29.40;49.18;100876.00;5058812;28;67077;-33
2022/12/24 06:49:53;;;;;;;11.43;10.33;;;;;;;29.42;49.71;100872.22;5058749;28;70872;-35
2022/12/24 06:52:25;;;;;;;11.43;10.27;;;;;;;29.46;49.41;100865.38;5055278;28;66133;-37
2022/12/24 06:54:56;;;;;;;12.07;11.00;;;;;;;29.47;49.52;100865.16;5056158;27;69585;-33
2022/12/24 06:57:27;;;;;;;10.37;9.67;;;;;;;29.40;49.71;100858.94;5051577;28;66712;-34
2022/12/24 06:59:59;;;;;;;11.63;10.77;;;;;;;29.49;48.97;100859.56;5056614;28;70072;-34
2022/12/24 07:02:31;;;;;;;10.27;9.48;;;;;;;29.52;49.61;100861.81;5055195;28;65875;-35
2022/12/24 07:05:03;;;;;;;13.05;10.45;;;;;;;29.51;49.43;100862.88;5050413;28;70763;-36
2022/12/24 07:07:36;;;;;;;10.23;9.43;;;;;;;29.15;49.59;100802.06;5047912;28;66418;-36
2022/12/24 07:10:12;;;;;;;11.60;10.57;;;;;;;29.56;49.33;100854.94;5055090;28;69141;-37
2022/12/24 07:12:44;;;;;;;9.85;9.07;;;;;;;29.60;49.02;100858.91;5056861;28;66417;-36
2022/12/24 07:15:16;;;;;;;10.55;9.70;;;;;;;29.64;49.22;100868.25;5061146;27;69550;-36
2022/12/24 07:17:47;;;;;;;;;;;;;;;29.39;50.76;100852.72;5056063;28;65758;-37
2022/12/24 07:20:18;;;;;;;9.77;8.85;;;;;;;29.60;48.88;100853.50;5048051;28;70389;-34
2022/12/24 07:22:49;;;;;;;10.05;9.05;;;;;;;29.54;48.52;100843.53;5049993;28;64972;-33
2022/12/24 07:25:21;;;;;;;10.07;9.05;;;;;;;29.48;47.75;100839.00;5049467;28;70102;-35
2022/12/24 07:27:52;;;;;;;9.80;8.93;;;;;;;29.45;47.02;100844.78;5052408;28;66096;-36
2022/12/24 07:30:23;;;;;;;8.67;7.87;;;;;;;29.40;46.62;100834.63;5047934;28;70136;-34
2022/12/24 07:32:54;;;;;;;14.53;8.90;;;;;;;29.36;46.00;100836.94;5053181;28;66282;-35
2022/12/24 07:35:26;;;;;;;8.18;7.60;;;;;;;29.33;45.42;100829.22;5056434;28;69430;-34
2022/12/24 07:37:57;;;;;;;8.10;7.23;;;;;;;29.28;44.75;100823.66;5051227;28;65837;-35
2022/12/24 07:40:28;;;;;;;13.30;7.47;;;;;;;29.29;44.54;100819.06;5047607;28;70534;-35
2022/12/24 07:43:00;;;;;;;14.57;7.33;;;;;;;29.25;44.47;100824.03;5058467;28;66110;-35
2022/12/24 07:45:31;;;;;;;22.97;8.20;;;;;;;29.25;44.27;100824.03;5055518;28;70156;-34
2022/12/24 07:48:02;;;;;;;49.92;7.15;;;;;;;29.22;43.32;100824.47;5060263;28;65890;-35
2022/12/24 07:50:34;;;;;;;11.37;7.23;;;;;;;29.20;43.41;100815.75;5056459;28;70559;-34
2022/12/24 07:53:05;;;;;;;10.10;6.80;;;;;;;29.19;43.01;100819.50;5056213;28;66669;-35
2022/12/24 07:55:36;;;;;;;8.38;7.68;;;;;;;29.19;42.32;100814.09;5057391;28;69422;-34
2022/12/24 07:58:08;;;;;;;14.95;6.85;;;;;;;29.15;42.62;100818.25;5052812;28;64633;-37
2022/12/24 08:00:39;;;;;;;7.03;6.50;;;;;;;29.14;41.69;100817.44;5053700;28;68989;-35
2022/12/24 08:03:17;;;;;;;7.70;6.53;;;;;;;28.68;41.80;100733.75;5056005;28;66133;-33
2022/12/24 08:05:51;;;;;;;13.65;6.53;;;;;;;29.06;41.54;100787.09;5054379;28;70389;-38
2022/12/24 08:08:22;;;;;;;7.15;6.55;;;;;;;29.09;41.34;100798.31;5053404;28;65107;-34
2022/12/24 08:10:59;;;;;;;9.30;5.72;;;;;;;29.07;40.93;100800.41;5054671;28;69133;-37
2022/12/24 08:13:31;;;;;;;7.22;6.57;;;;;;;29.07;40.61;100800.41;5051188;28;65902;-35
2022/12/24 08:16:03;;;;;;;7.03;6.32;;;;;;;29.03;40.66;100795.59;5056475;28;70142;-35
2022/12/24 08:18:35;;;;;;;6.60;5.97;;;;;;;29.07;40.99;100800.41;5037709;28;66345;-34
2022/12/24 08:21:09;;;;;;;6.73;5.90;;;;;;;29.07;40.15;100794.16;5056218;28;69991;-34
2022/12/24 08:23:41;;;;;;;6.45;5.95;;;;;;;29.05;40.15;100793.53;5053893;28;65937;-36
2022/12/24 08:26:12;;;;;;;6.15;5.70;;;;;;;29.04;40.13;100803.53;5057001;28;70187;-36
2022/12/24 08:28:44;;;;;;;5.85;5.43;;;;;;;29.06;39.92;100804.16;5055485;28;65961;-36
2022/12/24 08:31:15;;;;;;;7.80;6.07;;;;;;;29.06;40.33;100806.84;5053161;28;69867;-37
2022/12/24 08:33:46;;;;;;;6.45;5.95;;;;;;;29.07;40.36;100804.97;5055684;28;65833;-34
2022/12/24 08:36:18;;;;;;;6.05;5.40;;;;;;;29.06;39.83;100804.16;5056414;28;69162;-34
2022/12/24 08:38:49;;;;;;;6.40;5.87;;;;;;;29.12;39.84;100813.28;5050103;28;66016;-39
2022/12/24 08:41:20;;;;;;;7.47;5.33;;;;;;;29.10;39.97;100804.56;5056325;28;69201;-36
2022/12/24 08:43:54;;;;;;;6.43;5.10;;;;;;;29.12;39.30;100805.19;5055989;28;43242;-34
2022/12/24 08:46:25;;;;;;;6.28;5.88;;;;;;;29.08;39.06;100807.44;5054854;28;69278;-37
2022/12/24 08:48:56;;;;;;;8.40;5.83;;;;;;;29.10;39.63;100810.78;5055049;28;65674;-34
2022/12/24 08:51:28;;;;;;;8.15;5.82;;;;;;;29.06;39.59;100804.16;5054300;28;69867;-33
2022/12/24 08:53:59;;;;;;;6.88;5.55;;;;;;;29.08;39.00;100814.72;5055530;28;65565;-35
2022/12/24 08:56:30;;;;;;;5.90;5.40;;;;;;;29.10;38.64;100820.75;5055381;28;70119;-34
2022/12/24 08:59:02;;;;;;;5.47;4.97;;;;;;;29.10;38.74;100818.06;5055829;28;67336;-37
2022/12/24 09:01:33;;;;;;;6.22;5.40;;;;;;;29.09;38.68;100828.03;5050667;28;69221;-36
2022/12/24 09:04:04;;;;;;;7.00;6.28;;;;;;;29.08;38.56;100818.25;5055505;28;66089;-37
2022/12/24 09:06:36;;;;;;;8.43;5.57;;;;;;;29.06;39.12;100812.25;5053621;28;69856;-37
2022/12/24 09:09:07;;;;;;;5.90;5.50;;;;;;;29.05;38.96;100818.66;5051203;28;65816;-35
2022/12/24 09:11:39;;;;;;;7.73;5.47;;;;;;;29.02;38.41;100813.66;5057695;28;69089;-34
2022/12/24 09:14:11;;;;;;;5.88;5.30;;;;;;;29.05;38.59;100817.84;5051975;28;65648;-34
2022/12/24 09:16:42;;;;;;;7.47;5.13;;;;;;;29.02;38.98;100813.66;5052456;28;70517;-38
2022/12/24 09:19:14;;;;;;;7.65;6.72;;;;;;;29.13;41.46;100825.72;5060050;28;65522;-34
2022/12/24 09:21:46;;;;;;;11.50;6.93;;;;;;;29.24;43.62;100833.19;5055139;28;69987;-35
2022/12/24 09:24:17;;;;;;;14.37;8.00;;;;;;;29.28;45.08;100818.25;5058746;28;66180;-38
2022/12/24 09:26:49;;;;;;;11.23;7.83;;;;;;;29.42;46.13;100831.69;5059654;28;70134;-36
2022/12/24 09:29:26;;;;;;;11.00;8.48;;;;;;;29.50;46.45;100835.00;5050403;28;66265;-37
2022/12/24 09:31:58;;;;;;;30.77;9.70;;;;;;;29.56;47.52;100842.28;5057761;28;70323;-35
2022/12/24 09:34:29;;;;;;;32.25;11.23;;;;;;;29.59;47.67;100839.16;5057707;28;66011;-36
2022/12/24 09:37:01;;;;;;;25.13;10.97;;;;;;;29.66;47.76;100847.25;5056151;28;69981;-36
2022/12/24 09:39:33;;;;;;;21.83;11.00;;;;;;;29.69;47.14;100852.25;5058013;28;65554;-34
2022/12/24 09:42:32;;;;;;;22.37;10.67;;;;;;;29.69;47.48;100852.25;5055771;28;69175;-42
2022/12/24 09:45:06;;;;;;;20.77;11.15;;;;;;;29.73;48.41;100849.97;5058317;28;66253;-34
2022/12/24 09:47:44;;;;;;;19.58;11.38;;;;;;;29.77;48.26;100865.53;5043744;28;70300;-35
2022/12/24 09:50:42;;;;;;;20.52;11.65;;;;;;;29.76;48.39;100858.47;5056200;28;66321;-38
2022/12/24 09:53:42;;;;;;;17.15;10.60;;;;;;;29.72;49.70;100868.03;5056763;28;70151;-37
2022/12/24 09:56:27;;;;;;;25.58;14.13;;;;;;;29.46;47.80;100812.16;5045720;28;65279;-35
2022/12/24 09:59:02;;;;;;;40.10;14.32;;;;;;;29.84;47.39;100866.34;5055385;28;70505;-37
2022/12/24 10:01:34;;;;;;;38.67;15.38;;;;;;;29.15;47.37;100759.66;5056240;28;66471;-38
2022/12/24 10:04:22;;;;;;;41.17;15.05;;;;;;;29.13;48.92;100763.63;5054053;28;69199;-38
2022/12/24 10:07:36;;;;;;;37.65;13.38;;;;;;;29.76;49.83;100869.28;5053691;28;67001;-35
2022/12/24 10:10:30;;;;;;;31.33;13.27;;;;;;;29.92;50.23;100883.34;5040804;28;70186;-35
2022/12/24 10:13:30;;;;;;;34.22;14.18;;;;;;;29.88;51.30;100887.53;5052985;28;66397;-35
2022/12/24 10:16:32;;;;;;;41.83;13.32;;;;;;;29.81;52.29;100880.28;5056550;28;70438;-35
2022/12/24 10:19:20;;;;;;;29.08;13.10;;;;;;;29.88;53.18;100887.53;5051452;28;66050;-35
2022/12/24 10:22:13;;;;;;;39.42;14.73;;;;;;;29.65;53.15;100845.63;5053541;28;69039;-35
2022/12/24 10:24:50;;;;;;;33.05;15.30;;;;;;;30.07;53.02;100900.16;5049569;28;66173;-35
2022/12/24 10:27:27;;;;;;;44.28;17.05;;;;;;;29.72;54.14;100846.41;5053707;28;69870;-39
2022/12/24 10:30:15;;;;;;;43.58;15.82;;;;;;;29.71;51.09;100838.53;5050979;28;65941;-36
2022/12/24 10:32:52;;;;;;;38.60;15.85;;;;;;;30.16;51.20;100890.75;5050674;28;70325;-37
2022/12/24 10:35:28;;;;;;;56.65;16.23;;;;;;;30.19;50.72;100884.91;5058230;28;65543;-35
2022/12/24 10:38:00;;;;;;;47.40;15.63;;;;;;;30.30;52.53;100898.84;5052261;28;70631;-37
2022/12/24 10:40:43;;;;;;;33.53;15.45;;;;;;;30.36;50.65;100908.78;5054639;28;66103;-36
2022/12/24 10:43:18;;;;;;;41.53;15.65;;;;;;;30.34;50.07;100891.94;5056464;28;69671;-35
2022/12/24 10:46:02;;;;;;;38.45;16.50;;;;;;;30.43;49.67;100913.13;5055670;28;65822;-36
2022/12/24 10:48:50;;;;;;;37.72;16.17;;;;;;;30.40;50.20;100918.16;5052695;28;69700;-36
2022/12/24 10:51:39;;;;;;;37.85;16.02;;;;;;;30.38;49.49;100914.84;5048215;28;65594;-39
2022/12/24 10:54:20;;;;;;;31.83;16.42;;;;;;;30.42;49.82;100918.75;5055876;28;70216;-35
2022/12/24 10:57:00;;;;;;;26.35;15.20;;;;;;;30.39;49.32;100919.19;5047486;28;66093;-37
2022/12/24 10:59:55;;;;;;;28.48;15.35;;;;;;;30.36;49.46;100927.75;5050216;28;69936;-34
2022/12/24 11:02:32;;;;;;;29.85;15.48;;;;;;;29.76;49.22;100820.63;5053912;28;66628;-35
2022/12/24 11:05:27;;;;;;;30.45;15.90;;;;;;;30.12;50.31;100873.31;5055440;27;71199;-36
2022/12/24 11:08:26;;;;;;;32.20;17.75;;;;;;;30.43;49.73;100932.09;5056746;28;66423;-34
2022/12/24 11:11:04;;;;;;;34.08;17.92;;;;;;;30.37;49.17;100916.72;5046906;28;71108;-37
2022/12/24 11:13:54;;;;;;;36.13;17.33;;;;;;;30.01;49.89;100865.88;5051933;28;66462;-35
2022/12/24 11:16:37;;;;;;;39.28;16.85;;;;;;;30.32;49.58;100921.94;5046975;28;69636;-38
2022/12/24 11:19:17;;;;;;;34.95;18.40;;;;;;;30.42;48.86;100951.22;5050157;28;65497;-36
2022/12/24 11:21:59;;;;;;;33.50;19.17;;;;;;;30.40;49.24;100940.63;5055976;28;70470;-34
2022/12/24 11:24:34;;;;;;;36.35;20.15;;;;;;;30.44;49.55;100957.28;5049706;28;66996;-35
2022/12/24 11:27:31;;;;;;;34.63;18.88;;;;;;;30.33;49.94;100945.25;5051004;28;69781;-39
2022/12/24 11:30:15;;;;;;;35.05;19.35;;;;;;;30.36;49.27;100949.41;5053193;28;66164;-36
2022/12/24 11:32:49;;;;;;;29.98;19.38;;;;;;;29.97;49.14;100886.25;5051850;28;70098;-38
2022/12/24 11:35:23;;;;;;;38.05;21.42;;;;;;;30.37;49.39;100954.59;5051787;28;65340;-38
2022/12/24 11:38:00;;;;;;;42.38;21.23;;;;;;;30.37;49.43;100949.19;5054530;28;70845;-35
2022/12/24 11:40:59;;;;;;;44.90;22.67;;;;;;;29.96;49.72;100917.06;5054042;28;66189;-35
2022/12/24 11:43:49;;;;;;;44.33;23.10;;;;;;;30.26;49.20;100966.94;5046069;28;70560;-35
2022/12/24 11:46:45;;;;;;;39.92;22.67;;;;;;;30.25;49.31;100964.41;5052743;28;66992;-36
2022/12/24 11:49:27;;;;;;;36.80;20.38;;;;;;;30.31;49.95;100968.97;5048186;28;70245;-37
2022/12/24 11:52:10;;;;;;;;;;;;;;;30.05;52.00;100967.16;5052198;28;66002;-37
2022/12/24 11:55:09;;;;;;;34.60;18.50;;;;;;;30.17;52.09;100968.19;5054384;28;69135;-36
2022/12/24 11:58:09;;;;;;;39.35;22.05;;;;;;;30.26;51.27;100969.63;5050366;28;66050;-35
2022/12/24 12:00:43;;;;;;;41.53;22.52;;;;;;;30.15;51.52;100970.25;5024406;28;70127;-38
2022/12/24 12:03:43;;;;;;;46.63;25.30;;;;;;;30.18;51.54;100983.38;5045918;28;65131;-34
2022/12/24 12:06:37;;;;;;;47.95;24.60;;;;;;;30.14;51.55;100982.13;5050790;28;70003;-36